<?xml version="1.0" encoding="UTF-8" standalone="no" ?>
<gpx xmlns="http://www.topografix.com/GPX/1/1" xmlns:xsi="http://www.w3.org/2001/XMLSchema-instance" xsi:schemaLocation="http://www.topografix.com/GPX/1/1 http://www.topografix.com/GPX/1/1/gpx.xsd" version="1.1" creator="VisuGPX - https://www.visugpx.com">
  <metadata>
    <name>Rando LN</name>
  </metadata>
  <trk>
    <name><![CDATA[gare bagnoles Chadenet]]></name>
    <extensions>
      <line xmlns="http://www.topografix.com/GPX/gpx_style/0/2">
        <color>0000FF</color>
        <width>4</width>
      </line>
    </extensions>
    <trkseg>
      <trkpt lat="44.52831" lon="3.62847">
        <ele>957.2</ele>
      </trkpt>
      <trkpt lat="44.52831" lon="3.62847">
        <ele>957.2</ele>
      </trkpt>
      <trkpt lat="44.53009" lon="3.63052">
        <ele>954.7</ele>
      </trkpt>
      <trkpt lat="44.5302" lon="3.63082">
        <ele>952.3</ele>
      </trkpt>
      <trkpt lat="44.53014" lon="3.63108">
        <ele>947.5</ele>
      </trkpt>
      <trkpt lat="44.52964" lon="3.63037">
        <ele>947.3</ele>
      </trkpt>
      <trkpt lat="44.52899" lon="3.62986">
        <ele>942.7</ele>
      </trkpt>
      <trkpt lat="44.52685" lon="3.62817">
        <ele>929.5</ele>
      </trkpt>
      <trkpt lat="44.52607" lon="3.62729">
        <ele>933.8</ele>
      </trkpt>
      <trkpt lat="44.52435" lon="3.62671">
        <ele>919</ele>
      </trkpt>
      <trkpt lat="44.52174" lon="3.62655">
        <ele>897</ele>
      </trkpt>
      <trkpt lat="44.52139" lon="3.62641">
        <ele>896</ele>
      </trkpt>
      <trkpt lat="44.52108" lon="3.62639">
        <ele>893.3</ele>
      </trkpt>
      <trkpt lat="44.52077" lon="3.6268">
        <ele>887.1</ele>
      </trkpt>
      <trkpt lat="44.52057" lon="3.62765">
        <ele>885.4</ele>
      </trkpt>
      <trkpt lat="44.52023" lon="3.62793">
        <ele>886.1</ele>
      </trkpt>
      <trkpt lat="44.5198" lon="3.62815">
        <ele>884.7</ele>
      </trkpt>
      <trkpt lat="44.51972" lon="3.62874">
        <ele>888.6</ele>
      </trkpt>
      <trkpt lat="44.5198" lon="3.62979">
        <ele>896.7</ele>
      </trkpt>
      <trkpt lat="44.51984" lon="3.63158">
        <ele>894.217</ele>
        <time>2019-11-14T12:52:41Z</time>
      </trkpt>
      <trkpt lat="44.51952" lon="3.63336">
        <ele>888.689</ele>
        <time>2019-11-14T12:52:21Z</time>
      </trkpt>
      <trkpt lat="44.51951" lon="3.63422">
        <ele>886.585</ele>
        <time>2019-11-14T12:52:01Z</time>
      </trkpt>
      <trkpt lat="44.51926" lon="3.63454">
        <ele>883.214</ele>
        <time>2019-11-14T12:51:41Z</time>
      </trkpt>
      <trkpt lat="44.5181" lon="3.63437">
        <ele>882.186</ele>
        <time>2019-11-14T12:51:21Z</time>
      </trkpt>
      <trkpt lat="44.51804" lon="3.63489">
        <ele>882.188</ele>
        <time>2019-11-14T12:51:01Z</time>
      </trkpt>
      <trkpt lat="44.51775" lon="3.63583">
        <ele>883.087</ele>
        <time>2019-11-14T12:50:41Z</time>
      </trkpt>
      <trkpt lat="44.51758" lon="3.63703">
        <ele>885.036</ele>
        <time>2019-11-14T12:50:21Z</time>
      </trkpt>
      <trkpt lat="44.51672" lon="3.64006">
        <ele>886.639</ele>
        <time>2019-11-14T12:50:01Z</time>
      </trkpt>
      <trkpt lat="44.51625" lon="3.64225">
        <ele>889.067</ele>
        <time>2019-11-14T12:49:41Z</time>
      </trkpt>
      <trkpt lat="44.51594" lon="3.64315">
        <ele>889.018</ele>
        <time>2019-11-14T12:49:21Z</time>
      </trkpt>
      <trkpt lat="44.51524" lon="3.64456">
        <ele>889.108</ele>
        <time>2019-11-14T12:49:01Z</time>
      </trkpt>
      <trkpt lat="44.51421" lon="3.64615">
        <ele>889.914</ele>
        <time>2019-11-14T12:48:41Z</time>
      </trkpt>
      <trkpt lat="44.51361" lon="3.64654">
        <ele>892.022</ele>
        <time>2019-11-14T12:48:21Z</time>
      </trkpt>
      <trkpt lat="44.51386" lon="3.64738">
        <ele>894.442</ele>
        <time>2019-11-14T12:48:01Z</time>
      </trkpt>
      <trkpt lat="44.51357" lon="3.64789">
        <ele>896.837</ele>
        <time>2019-11-14T12:47:41Z</time>
      </trkpt>
      <trkpt lat="44.51332" lon="3.64871">
        <ele>899.629</ele>
        <time>2019-11-14T12:47:21Z</time>
      </trkpt>
      <trkpt lat="44.51332" lon="3.64946">
        <ele>900.911</ele>
        <time>2019-11-14T12:47:01Z</time>
      </trkpt>
      <trkpt lat="44.51355" lon="3.64965">
        <ele>903.21</ele>
        <time>2019-11-14T12:46:41Z</time>
      </trkpt>
      <trkpt lat="44.51363" lon="3.65042">
        <ele>903.249</ele>
        <time>2019-11-14T12:46:21Z</time>
      </trkpt>
      <trkpt lat="44.51299" lon="3.65055">
        <ele>907.282</ele>
        <time>2019-11-14T12:46:01Z</time>
      </trkpt>
      <trkpt lat="44.51244" lon="3.65042">
        <ele>905.67</ele>
        <time>2019-11-14T12:45:41Z</time>
      </trkpt>
      <trkpt lat="44.51196" lon="3.65087">
        <ele>908.861</ele>
        <time>2019-11-14T12:45:21Z</time>
      </trkpt>
      <trkpt lat="44.51092" lon="3.65087">
        <ele>905.508</ele>
        <time>2019-11-14T12:45:01Z</time>
      </trkpt>
      <trkpt lat="44.51019" lon="3.65137">
        <ele>905.714</ele>
        <time>2019-11-14T12:44:41Z</time>
      </trkpt>
      <trkpt lat="44.50985" lon="3.65137">
        <ele>902.813</ele>
        <time>2019-11-14T12:44:21Z</time>
      </trkpt>
      <trkpt lat="44.50932" lon="3.65192">
        <ele>903.072</ele>
        <time>2019-11-14T12:44:01Z</time>
      </trkpt>
      <trkpt lat="44.5091" lon="3.65315">
        <ele>904.349</ele>
        <time>2019-11-14T12:43:41Z</time>
      </trkpt>
      <trkpt lat="44.50945" lon="3.65471">
        <ele>907.581</ele>
        <time>2019-11-14T12:43:21Z</time>
      </trkpt>
      <trkpt lat="44.5097" lon="3.65604">
        <ele>905.213</ele>
        <time>2019-11-14T12:43:01Z</time>
      </trkpt>
      <trkpt lat="44.50938" lon="3.65757">
        <ele>901.112</ele>
        <time>2019-11-14T12:42:41Z</time>
      </trkpt>
      <trkpt lat="44.50899" lon="3.66049">
        <ele>903.181</ele>
        <time>2019-11-14T12:42:21Z</time>
      </trkpt>
      <trkpt lat="44.5085" lon="3.66044">
        <ele>905.594</ele>
        <time>2019-11-14T12:42:01Z</time>
      </trkpt>
      <trkpt lat="44.50795" lon="3.66025">
        <ele>915.322</ele>
        <time>2019-11-14T12:41:41Z</time>
      </trkpt>
      <trkpt lat="44.50656" lon="3.66401">
        <ele>916.543</ele>
        <time>2019-11-14T12:41:21Z</time>
      </trkpt>
      <trkpt lat="44.50532" lon="3.66422">
        <ele>940.708</ele>
        <time>2019-11-14T12:41:01Z</time>
      </trkpt>
    </trkseg>
  </trk>
</gpx>